Time;durP1;ratioP1;P1;durP2;ratioP2;P2;SDS_P1;SDS_P2;PMS_P1;PMS_P2;Temp;Humidity;BMP_temperature;BMP_pressure;BME280_temperature;BME280_humidity;BME280_pressure;Samples;Min_cycle;Max_cycle;Signal;HPM_P1;HPM_P2
2023/09/04 00:01:01;;;;;;;4.97;4.57;;;;;;;18.07;100.00;101182.53;5021911;28;20208;-77
2023/09/04 00:03:26;;;;;;;4.63;4.33;;;;;;;18.05;100.00;101189.56;5019406;28;20198;-76
2023/09/04 00:05:52;;;;;;;5.30;4.60;;;;;;;18.10;100.00;101189.44;5022284;28;20667;-77
2023/09/04 00:08:18;;;;;;;3.93;3.60;;;;;;;18.16;100.00;101191.03;5016738;28;20208;-76
2023/09/04 00:10:44;;;;;;;3.63;3.33;;;;;;;18.27;100.00;101196.88;5016436;28;20205;-78
2023/09/04 00:13:11;;;;;;;3.80;3.50;;;;;;;18.16;100.00;101191.03;5011351;28;20637;-78
2023/09/04 00:15:36;;;;;;;4.07;3.30;;;;;;;18.16;100.00;101186.66;5020766;28;20186;-77
2023/09/04 00:18:03;;;;;;;3.83;3.50;;;;;;;18.13;100.00;101189.38;5018107;28;20202;-77
2023/09/04 00:20:28;;;;;;;3.70;3.40;;;;;;;18.16;100.00;101191.91;5012500;28;20239;-77
2023/09/04 00:22:55;;;;;;;3.90;3.60;;;;;;;18.12;100.00;101191.13;5022181;28;20242;-76
2023/09/04 00:25:21;;;;;;;4.00;3.70;;;;;;;18.08;100.00;101191.22;5023517;28;20220;-77
2023/09/04 00:27:46;;;;;;;4.20;3.80;;;;;;;18.08;100.00;101193.84;5022677;28;20194;-77
2023/09/04 00:30:11;;;;;;;4.97;3.43;;;;;;;18.05;100.00;101189.56;5018656;28;20713;-77
2023/09/04 00:32:38;;;;;;;4.93;3.60;;;;;;;18.06;100.00;101193.91;5019751;28;20197;-77
2023/09/04 00:35:04;;;;;;;4.33;3.57;;;;;;;18.03;100.00;101190.50;5027818;28;20280;-78
2023/09/04 00:37:29;;;;;;;4.33;3.60;;;;;;;17.98;100.00;101181.00;5028546;28;20268;-78
2023/09/04 00:39:54;;;;;;;4.83;3.73;;;;;;;17.91;100.00;101184.66;5031574;28;20226;-77
2023/09/04 00:42:20;;;;;;;3.17;2.97;;;;;;;17.86;100.00;101180.41;5021254;28;20190;-77
2023/09/04 00:44:50;;;;;;;3.90;3.60;;;;;;;17.85;100.00;101179.56;5015185;28;20203;-79
2023/09/04 00:47:17;;;;;;;3.67;3.37;;;;;;;17.81;100.00;101180.53;5015720;28;20342;-78
2023/09/04 00:49:45;;;;;;;3.93;3.53;;;;;;;17.81;100.00;101185.75;5028355;28;20560;-77
2023/09/04 00:52:11;;;;;;;3.37;3.07;;;;;;;17.77;100.00;101178.91;5022968;28;20181;-78
2023/09/04 00:54:37;;;;;;;3.50;3.20;;;;;;;17.74;100.00;101178.97;5022230;28;20679;-77
2023/09/04 00:57:04;;;;;;;3.80;3.50;;;;;;;17.72;100.00;101172.91;5023620;28;20275;-76
2023/09/04 00:59:30;;;;;;;3.57;3.37;;;;;;;17.70;100.00;101174.72;5017209;28;20850;-78
2023/09/04 01:01:59;;;;;;;5.80;3.80;;;;;;;17.71;100.00;101177.28;5019256;28;20228;-77
2023/09/04 01:04:24;;;;;;;3.87;3.57;;;;;;;17.72;100.00;101180.78;5020961;28;20209;-77
2023/09/04 01:06:50;;;;;;;4.30;3.80;;;;;;;17.65;100.00;101170.44;5021992;28;20394;-77
2023/09/04 01:09:16;;;;;;;3.67;3.37;;;;;;;17.59;100.00;101172.34;5017361;28;20188;-77
2023/09/04 01:11:51;;;;;;;4.10;3.80;;;;;;;17.57;100.00;101172.41;5020379;28;20219;-77
2023/09/04 01:14:19;;;;;;;3.67;3.37;;;;;;;17.54;100.00;101182.09;5020952;28;20311;-77
2023/09/04 01:16:46;;;;;;;3.43;3.20;;;;;;;17.55;100.00;101181.16;5024416;28;20297;-78
2023/09/04 01:19:12;;;;;;;3.87;3.47;;;;;;;17.53;100.00;101175.97;5024012;28;20197;-77
2023/09/04 01:21:38;;;;;;;3.73;3.43;;;;;;;17.54;100.00;101177.69;5021786;28;20212;-79
2023/09/04 01:24:04;;;;;;;3.20;2.90;;;;;;;17.57;100.00;101174.13;5023875;28;20201;-77
2023/09/04 01:26:53;;;;;;;4.27;3.87;;;;;;;17.49;100.00;101167.34;5019839;28;20222;-78
2023/09/04 01:29:29;;;;;;;3.63;3.33;;;;;;;17.43;100.00;101177.09;5024159;28;20821;-79
2023/09/04 01:32:00;;;;;;;3.20;3.00;;;;;;;17.41;100.00;101169.25;5018551;28;20213;-78
2023/09/04 01:34:31;;;;;;;4.63;3.50;;;;;;;17.37;100.00;101173.72;5017426;28;20194;-78
2023/09/04 01:36:57;;;;;;;3.90;3.43;;;;;;;17.36;100.00;101172.00;5022973;28;20224;-77
2023/09/04 01:39:25;;;;;;;3.63;3.33;;;;;;;17.31;100.00;101176.50;5021012;28;20196;-78
2023/09/04 01:41:50;;;;;;;3.83;3.50;;;;;;;17.32;100.00;101165.09;5017667;28;20552;-76
2023/09/04 01:44:15;;;;;;;3.27;3.07;;;;;;;17.25;100.00;101168.78;5026260;28;20195;-78
2023/09/04 01:46:41;;;;;;;3.90;3.60;;;;;;;17.21;100.00;101169.72;5017321;28;21188;-78
2023/09/04 01:49:09;;;;;;;4.07;3.77;;;;;;;17.17;100.00;101165.44;5014844;28;20589;-78
2023/09/04 01:51:35;;;;;;;3.90;3.50;;;;;;;17.12;100.00;101167.34;5013032;28;20221;-79
2023/09/04 01:54:00;;;;;;;4.83;4.10;;;;;;;17.05;100.00;101153.53;5020152;28;20275;-78
2023/09/04 01:56:25;;;;;;;3.93;3.63;;;;;;;17.00;100.00;101158.00;5021630;28;20185;-78
2023/09/04 01:58:51;;;;;;;4.33;3.93;;;;;;;16.98;100.00;101151.94;5025172;28;20291;-76
2023/09/04 02:01:16;;;;;;;4.33;3.93;;;;;;;16.89;100.00;101161.69;5022308;28;20222;-76
2023/09/04 02:03:56;;;;;;;4.20;3.90;;;;;;;16.81;100.00;101157.50;5021669;28;20188;-78
2023/09/04 02:06:22;;;;;;;4.37;4.07;;;;;;;16.80;100.00;101151.41;5022891;28;20276;-76
2023/09/04 02:08:48;;;;;;;3.90;3.70;;;;;;;16.71;100.00;101160.28;5019147;28;20219;-77
2023/09/04 02:11:13;;;;;;;4.77;4.33;;;;;;;16.69;100.00;101156.88;5011390;28;20239;-76
2023/09/04 02:13:38;;;;;;;4.10;3.80;;;;;;;16.68;100.00;101163.00;5018237;28;20194;-76
2023/09/04 02:16:04;;;;;;;9.17;4.50;;;;;;;16.59;100.00;101161.41;5018306;28;20206;-76
2023/09/04 02:18:30;;;;;;;4.37;4.07;;;;;;;16.51;100.00;101154.63;5018918;28;20220;-76
2023/09/04 02:20:56;;;;;;;4.53;4.23;;;;;;;16.48;100.00;101147.72;5013090;28;20596;-76
2023/09/04 02:23:21;;;;;;;6.03;4.00;;;;;;;16.40;100.00;101147.88;5024973;28;20239;-78
2023/09/04 02:25:47;;;;;;;4.63;4.23;;;;;;;16.42;100.00;101145.22;5018058;28;20215;-77
2023/09/04 02:28:12;;;;;;;4.50;4.20;;;;;;;16.56;100.00;101143.19;5010713;28;20184;-77
2023/09/04 02:30:38;;;;;;;4.67;4.27;;;;;;;16.80;100.00;101138.31;5022961;28;21033;-76
2023/09/04 02:33:04;;;;;;;4.77;4.37;;;;;;;16.96;100.00;101143.25;5014380;28;21044;-77
2023/09/04 02:35:29;;;;;;;4.13;3.70;;;;;;;16.99;100.00;101148.41;5021559;28;20242;-79
2023/09/04 02:37:54;;;;;;;4.30;3.90;;;;;;;17.06;100.00;101148.25;5016708;28;20187;-77
2023/09/04 02:40:20;;;;;;;4.40;4.00;;;;;;;17.08;100.00;101145.63;5020734;28;20699;-77
2023/09/04 02:42:45;;;;;;;4.07;3.63;;;;;;;17.07;100.00;101141.28;5017949;28;20271;-77
2023/09/04 02:45:10;;;;;;;5.67;3.63;;;;;;;17.13;100.00;101148.97;5029155;28;20202;-77
2023/09/04 02:47:37;;;;;;;4.13;3.73;;;;;;;17.13;100.00;101148.97;5023249;28;20179;-77
2023/09/04 02:50:04;;;;;;;4.00;3.70;;;;;;;17.12;100.00;101144.63;5025970;28;20199;-78
2023/09/04 02:52:30;;;;;;;3.77;3.47;;;;;;;17.10;100.00;101138.56;5029338;28;20203;-77
2023/09/04 02:54:56;;;;;;;5.33;3.83;;;;;;;17.08;100.00;101142.13;5021366;28;20266;-78
2023/09/04 02:57:22;;;;;;;4.30;3.90;;;;;;;17.07;100.00;101143.91;5011795;28;20195;-77
2023/09/04 02:59:47;;;;;;;4.30;3.90;;;;;;;17.08;100.00;101143.00;5017177;28;20195;-78
2023/09/04 03:02:13;;;;;;;5.03;3.77;;;;;;;16.97;100.00;101145.84;5022926;28;20215;-77
2023/09/04 03:04:39;;;;;;;4.10;3.63;;;;;;;16.97;100.00;101138.00;5022483;28;20673;-76
2023/09/04 03:07:04;;;;;;;4.67;3.60;;;;;;;16.95;100.00;101144.16;5021573;28;20179;-77
2023/09/04 03:09:31;;;;;;;4.43;4.10;;;;;;;16.93;100.00;101138.94;5021816;28;20176;-79
2023/09/04 03:11:57;;;;;;;4.37;3.50;;;;;;;16.91;100.00;101140.72;5017901;28;20191;-77
2023/09/04 03:14:23;;;;;;;3.83;3.53;;;;;;;16.85;100.00;101136.47;5018153;28;20179;-75
2023/09/04 03:16:48;;;;;;;4.10;3.80;;;;;;;16.81;100.00;101134.81;5019334;28;20182;-76
2023/09/04 03:19:13;;;;;;;4.20;3.80;;;;;;;16.80;100.00;101140.94;5019552;28;20743;-78
2023/09/04 03:21:38;;;;;;;4.30;3.90;;;;;;;16.70;100.00;101134.19;5016702;28;20256;-76
2023/09/04 03:24:04;;;;;;;4.33;4.03;;;;;;;16.60;100.00;101136.13;5021581;28;20192;-78
2023/09/04 03:26:29;;;;;;;4.30;4.00;;;;;;;16.45;100.00;101132.94;5022630;28;20215;-79
2023/09/04 03:28:55;;;;;;;4.73;4.33;;;;;;;16.36;100.00;101140.97;5023232;28;20211;-76
2023/09/04 03:31:20;;;;;;;4.50;4.10;;;;;;;16.28;100.00;101148.06;5019972;28;20204;-79
2023/09/04 03:33:45;;;;;;;4.60;4.23;;;;;;;16.19;100.00;101148.25;5017366;28;20290;-78
2023/09/04 03:36:11;;;;;;;4.43;4.13;;;;;;;16.14;100.00;101143.13;5019272;28;20184;-77
2023/09/04 03:38:39;;;;;;;4.83;4.43;;;;;;;16.11;100.00;101146.63;5023392;28;20206;-78
2023/09/04 03:41:05;;;;;;;4.47;4.07;;;;;;;16.05;100.00;101145.88;5021455;28;20582;-77
2023/09/04 03:43:30;;;;;;;5.33;4.87;;;;;;;15.98;100.00;101150.34;5019080;28;20195;-76
2023/09/04 03:45:55;;;;;;;5.03;4.63;;;;;;;15.96;100.00;101149.53;5016409;28;21014;-77
2023/09/04 03:48:21;;;;;;;4.97;4.57;;;;;;;15.89;100.00;101143.53;5018958;28;20209;-77
2023/09/04 03:50:47;;;;;;;5.20;4.80;;;;;;;15.89;100.00;101146.16;5018822;28;20211;-78
2023/09/04 03:53:12;;;;;;;5.20;4.80;;;;;;;15.87;100.00;101150.56;5023233;28;20195;-78
2023/09/04 03:55:37;;;;;;;5.23;4.80;;;;;;;15.89;100.00;101146.16;5020259;28;20189;-76
2023/09/04 03:58:03;;;;;;;5.63;4.60;;;;;;;15.84;100.00;101155.81;5018189;28;20279;-77
2023/09/04 04:00:30;;;;;;;4.90;4.50;;;;;;;15.81;100.00;101155.84;5015156;28;20211;-77
2023/09/04 04:02:57;;;;;;;5.03;4.63;;;;;;;15.77;100.00;101164.59;5021278;28;20188;-77
2023/09/04 04:05:23;;;;;;;5.47;4.80;;;;;;;15.81;100.00;101158.47;5022698;28;20271;-76
2023/09/04 04:07:48;;;;;;;5.30;4.80;;;;;;;15.70;100.00;101156.03;5029854;28;20191;-76
2023/09/04 04:10:14;;;;;;;5.10;4.60;;;;;;;15.87;100.00;101162.75;5019631;28;20324;-75
2023/09/04 04:12:39;;;;;;;5.30;4.80;;;;;;;15.82;100.00;101158.41;5024435;28;20190;-77
2023/09/04 04:15:06;;;;;;;5.33;4.87;;;;;;;15.89;100.00;101159.22;5017622;28;20180;-77
2023/09/04 04:17:35;;;;;;;4.93;4.53;;;;;;;15.95;100.00;101161.72;5019631;28;20603;-77
2023/09/04 04:20:01;;;;;;;6.43;4.87;;;;;;;15.90;100.00;101158.31;5017470;28;20622;-77
2023/09/04 04:22:26;;;;;;;5.57;4.90;;;;;;;15.87;100.00;101149.69;5021569;28;20231;-77
2023/09/04 04:24:52;;;;;;;5.03;4.33;;;;;;;15.93;100.00;101150.44;5016784;28;20249;-77
2023/09/04 04:27:17;;;;;;;5.43;4.17;;;;;;;16.00;100.00;101146.84;5021189;28;20199;-78
2023/09/04 04:29:44;;;;;;;6.37;4.40;;;;;;;16.03;100.00;101148.53;5015256;28;20729;-78
2023/09/04 04:32:09;;;;;;;4.83;4.43;;;;;;;15.98;100.00;101142.53;5027187;28;20271;-77
2023/09/04 04:34:35;;;;;;;5.10;4.60;;;;;;;15.97;100.00;101146.91;5024689;28;20676;-77
2023/09/04 04:37:00;;;;;;;8.53;5.10;;;;;;;16.05;100.00;101143.28;5020800;28;20183;-76
2023/09/04 04:39:25;;;;;;;6.67;5.07;;;;;;;16.02;100.00;101140.75;5022557;28;20179;-76
2023/09/04 04:41:51;;;;;;;5.20;4.40;;;;;;;16.06;100.00;101134.56;5018382;28;20206;-77
2023/09/04 04:44:16;;;;;;;4.97;4.57;;;;;;;16.10;100.00;101142.34;5022982;28;20574;-77
2023/09/04 04:46:41;;;;;;;4.53;4.13;;;;;;;16.14;100.00;101151.81;5020038;28;20558;-76
2023/09/04 04:49:07;;;;;;;5.53;4.13;;;;;;;16.14;100.00;101143.13;5025792;28;20214;-77
2023/09/04 04:51:32;;;;;;;6.00;4.60;;;;;;;16.14;100.00;101137.91;5021036;28;20242;-78
2023/09/04 04:53:58;;;;;;;4.10;3.73;;;;;;;16.17;100.00;101139.59;5022664;28;20285;-76
2023/09/04 04:56:23;;;;;;;4.37;3.97;;;;;;;16.14;100.00;101132.69;5023468;28;20362;-78
2023/09/04 04:58:48;;;;;;;4.53;4.13;;;;;;;16.13;100.00;101131.81;5021719;28;20675;-75
2023/09/04 05:01:14;;;;;;;4.60;4.27;;;;;;;16.11;100.00;101128.34;5019094;28;20241;-76
2023/09/04 05:03:39;;;;;;;4.70;4.30;;;;;;;16.18;100.00;101120.41;5019360;28;20291;-77
2023/09/04 05:06:08;;;;;;;4.23;3.93;;;;;;;16.13;100.00;101118.75;5022336;28;20219;-77
2023/09/04 05:08:33;;;;;;;4.63;4.23;;;;;;;16.17;100.00;101106.53;5018651;28;20192;-77
2023/09/04 05:11:04;;;;;;;4.13;3.83;;;;;;;16.16;100.00;101117.84;5021765;28;20917;-76
2023/09/04 05:13:30;;;;;;;5.73;4.30;;;;;;;16.13;100.00;101118.75;5024235;28;20221;-78
2023/09/04 05:15:56;;;;;;;4.67;4.27;;;;;;;16.11;100.00;101122.28;5024622;28;20283;-76
2023/09/04 05:18:21;;;;;;;5.07;4.67;;;;;;;16.10;100.00;101111.00;5019023;28;20211;-76
2023/09/04 05:20:48;;;;;;;5.00;4.60;;;;;;;16.09;100.00;101121.44;5019453;28;20286;-77
2023/09/04 05:23:13;;;;;;;4.77;4.37;;;;;;;16.08;100.00;101119.72;5019050;28;20657;-77
2023/09/04 05:25:50;;;;;;;5.10;4.60;;;;;;;16.11;100.00;101115.31;5024524;28;20226;-77
2023/09/04 05:28:15;;;;;;;4.73;4.20;;;;;;;16.18;100.00;101110.84;5023949;28;20663;-78
2023/09/04 05:30:40;;;;;;;4.60;4.20;;;;;;;16.18;100.00;101118.69;5021087;28;20291;-76
2023/09/04 05:33:06;;;;;;;4.63;4.23;;;;;;;16.26;100.00;101111.56;5020190;28;20194;-76
2023/09/04 05:35:31;;;;;;;5.17;4.40;;;;;;;16.35;100.00;101113.13;5018507;28;20184;-77
2023/09/04 05:37:58;;;;;;;4.53;4.13;;;;;;;16.46;100.00;101110.31;5018681;28;20194;-79
2023/09/04 05:40:24;;;;;;;4.63;4.20;;;;;;;16.49;100.00;101109.38;5019996;28;20228;-76
2023/09/04 05:42:49;;;;;;;4.27;3.97;;;;;;;16.59;100.00;101114.38;5015206;28;20564;-77
2023/09/04 05:45:16;;;;;;;4.70;4.17;;;;;;;16.67;100.00;101106.38;5019312;28;20211;-76
2023/09/04 05:47:41;;;;;;;4.67;3.53;;;;;;;16.75;100.00;101104.44;5020413;28;20724;-77
2023/09/04 05:50:07;;;;;;;4.60;4.00;;;;;;;16.83;100.00;101100.81;5023761;28;20298;-78
2023/09/04 05:52:32;;;;;;;4.30;3.90;;;;;;;16.93;100.00;101102.31;5024308;28;20864;-76
2023/09/04 05:54:58;;;;;;;5.20;4.00;;;;;;;17.01;100.00;101100.44;5032054;28;20179;-76
2023/09/04 05:57:23;;;;;;;4.90;3.90;;;;;;;17.13;100.00;101098.44;5020902;28;20187;-77
2023/09/04 05:59:49;;;;;;;3.73;3.43;;;;;;;17.24;100.00;101096.41;5018337;28;20306;-76
2023/09/04 06:02:15;;;;;;;4.90;3.67;;;;;;;17.30;100.00;101100.63;5016815;28;20666;-76
2023/09/04 06:04:40;;;;;;;4.67;3.73;;;;;;;17.32;100.00;101104.94;5021931;28;20192;-75
2023/09/04 06:07:06;;;;;;;4.63;3.90;;;;;;;17.33;100.00;101100.56;5030475;28;20237;-77
2023/09/04 06:09:32;;;;;;;8.63;3.87;;;;;;;17.42;100.00;101099.50;5022576;28;20200;-76
2023/09/04 06:11:58;;;;;;;4.57;3.93;;;;;;;17.49;100.00;101095.81;5026675;28;20185;-76
2023/09/04 06:14:23;;;;;;;4.10;3.70;;;;;;;17.54;100.00;101095.72;5021208;28;20197;-76
2023/09/04 06:16:48;;;;;;;3.80;3.43;;;;;;;17.65;100.00;101097.16;5020820;28;20189;-76
2023/09/04 06:19:13;;;;;;;3.83;3.40;;;;;;;17.82;100.00;101090.63;5012884;28;20196;-75
2023/09/04 06:21:39;;;;;;;7.20;3.83;;;;;;;18.01;100.00;101098.03;5016880;28;20207;-77
2023/09/04 06:24:04;;;;;;;6.00;3.70;;;;;;;18.10;100.00;101097.75;5022943;28;20661;-76
2023/09/04 06:26:29;;;;;;;4.17;3.70;;;;;;;18.32;100.00;101090.16;5024213;28;20228;-76
2023/09/04 06:28:55;;;;;;;5.07;3.63;;;;;;;18.56;100.00;101093.81;5027968;28;20197;-77
2023/09/04 06:31:21;;;;;;;4.10;3.33;;;;;;;18.64;100.00;101084.91;5025193;28;20207;-77
2023/09/04 06:33:47;;;;;;;3.80;3.13;;;;;;;18.92;100.00;101090.13;5013537;28;20179;-78
2023/09/04 06:36:13;;;;;;;4.00;3.30;;;;;;;19.00;100.00;101088.19;5022805;28;20717;-76
2023/09/04 06:38:38;;;;;;;3.50;3.20;;;;;;;19.40;100.00;101091.28;5028194;28;20195;-77
2023/09/04 06:41:04;;;;;;;4.93;2.73;;;;;;;19.58;100.00;101089.81;5031238;28;20211;-78
2023/09/04 06:43:30;;;;;;;3.60;3.30;;;;;;;19.81;100.00;101082.91;5018568;28;20171;-76
2023/09/04 06:45:58;;;;;;;2.83;2.63;;;;;;;20.15;100.00;101080.88;5022369;28;20200;-77
2023/09/04 06:48:23;;;;;;;3.00;2.70;;;;;;;20.20;100.00;101087.69;5022845;28;20265;-77
2023/09/04 06:50:51;;;;;;;3.43;2.80;;;;;;;20.56;100.00;101087.22;5026952;28;20637;-76
2023/09/04 06:53:17;;;;;;;2.50;2.30;;;;;;;20.42;100.00;101084.22;5022819;28;20187;-75
2023/09/04 06:55:43;;;;;;;3.03;2.83;;;;;;;20.84;100.00;101074.78;5020303;28;20183;-76
2023/09/04 06:58:08;;;;;;;2.57;2.37;;;;;;;20.68;99.57;101079.78;5018357;28;20250;-76
2023/09/04 07:00:34;;;;;;;2.63;2.40;;;;;;;20.47;100.00;101086.72;5016878;28;20859;-76
2023/09/04 07:03:00;;;;;;;3.37;2.80;;;;;;;20.68;100.00;101087.66;5019780;28;20182;-77
2023/09/04 07:05:25;;;;;;;2.57;2.37;;;;;;;20.95;100.00;101080.47;5018542;28;20228;-77
2023/09/04 07:07:50;;;;;;;2.57;2.37;;;;;;;21.08;98.93;101080.84;5018471;28;20832;-76
2023/09/04 07:10:16;;;;;;;3.17;2.17;;;;;;;20.99;99.47;101076.81;5026875;28;20295;-78
2023/09/04 07:12:41;;;;;;;2.67;2.47;;;;;;;20.98;99.83;101083.00;5029479;28;20195;-76
2023/09/04 07:15:07;;;;;;;3.07;2.40;;;;;;;20.88;99.78;101073.75;5016904;28;20192;-75
2023/09/04 07:17:32;;;;;;;3.00;2.70;;;;;;;21.14;99.06;101082.38;5017961;28;20545;-76
2023/09/04 07:19:58;;;;;;;2.70;2.50;;;;;;;21.87;97.27;101074.09;5023396;28;20215;-76
2023/09/04 07:22:24;;;;;;;2.90;2.40;;;;;;;21.59;95.72;101077.91;5022509;28;20188;-77
2023/09/04 07:24:50;;;;;;;2.67;2.47;;;;;;;22.00;95.02;101077.91;5025245;28;20219;-76
2023/09/04 07:27:16;;;;;;;2.63;2.40;;;;;;;22.33;93.19;101077.31;5020140;28;20714;-77
2023/09/04 07:29:41;;;;;;;2.80;2.60;;;;;;;22.23;94.33;101079.50;5020523;28;20195;-76
2023/09/04 07:32:06;;;;;;;2.87;2.67;;;;;;;22.20;94.92;101076.16;5018795;28;20191;-77
2023/09/04 07:34:32;;;;;;;2.57;2.37;;;;;;;22.63;92.85;101075.97;5020585;28;20191;-76
2023/09/04 07:36:57;;;;;;;2.40;2.20;;;;;;;22.56;91.78;101074.56;5025506;28;20187;-78
2023/09/04 07:39:22;;;;;;;3.10;2.80;;;;;;;22.46;92.23;101085.53;5023990;28;20253;-77
2023/09/04 07:41:48;;;;;;;2.10;2.00;;;;;;;22.50;92.51;101078.34;5022643;28;20210;-77
2023/09/04 07:44:13;;;;;;;2.20;2.00;;;;;;;22.81;91.61;101076.91;5022396;28;20199;-77
2023/09/04 07:46:39;;;;;;;3.50;2.50;;;;;;;22.56;92.12;101069.28;5031403;28;20274;-79
2023/09/04 07:49:05;;;;;;;3.40;2.83;;;;;;;22.70;91.51;101072.13;5029633;28;20656;-79
2023/09/04 07:51:30;;;;;;;2.30;2.20;;;;;;;22.54;92.43;101079.91;5026541;28;20261;-77
2023/09/04 07:53:55;;;;;;;2.63;2.43;;;;;;;22.73;92.07;101071.13;5026732;28;20317;-78
2023/09/04 07:56:22;;;;;;;2.73;2.53;;;;;;;22.60;93.14;101070.88;5027801;28;20563;-76
2023/09/04 07:58:48;;;;;;;2.90;2.70;;;;;;;22.38;93.25;101072.69;5022676;28;20577;-76
2023/09/04 08:01:13;;;;;;;3.23;2.50;;;;;;;22.50;92.67;101070.44;5025017;28;20214;-77
2023/09/04 08:03:40;;;;;;;2.73;2.53;;;;;;;22.27;93.05;101068.81;5017346;28;20199;-78
2023/09/04 08:06:05;;;;;;;3.53;2.50;;;;;;;22.17;94.51;101074.50;5020941;28;20200;-77
2023/09/04 08:08:30;;;;;;;2.80;2.60;;;;;;;22.22;94.64;101067.25;5021881;28;20192;-77
2023/09/04 08:10:56;;;;;;;3.60;2.70;;;;;;;21.87;95.04;101069.69;5018344;28;20714;-78
2023/09/04 08:13:21;;;;;;;4.67;2.77;;;;;;;21.76;95.62;101072.81;5019797;28;20184;-78
2023/09/04 08:15:46;;;;;;;2.73;2.53;;;;;;;21.99;95.96;101073.56;5021063;28;20196;-77
2023/09/04 08:18:12;;;;;;;4.47;3.00;;;;;;;21.90;94.50;101068.69;5019823;28;20625;-77
2023/09/04 08:20:38;;;;;;;3.47;2.77;;;;;;;21.95;93.95;101074.59;5025213;28;20208;-79
2023/09/04 08:23:06;;;;;;;3.20;2.90;;;;;;;22.08;94.36;101067.84;5024871;28;20575;-77
2023/09/04 08:25:32;;;;;;;4.33;3.43;;;;;;;21.86;94.91;101078.50;5026739;28;20250;-77
2023/09/04 08:27:58;;;;;;;4.77;3.23;;;;;;;21.81;96.10;101067.31;5022517;28;20637;-77
2023/09/04 08:30:23;;;;;;;3.30;3.00;;;;;;;21.87;95.99;101067.03;5022861;28;20229;-78
2023/09/04 08:32:49;;;;;;;3.37;3.07;;;;;;;21.86;96.17;101067.13;5023029;28;20202;-77
2023/09/04 08:35:15;;;;;;;7.17;4.00;;;;;;;22.04;96.08;101076.84;5022409;28;20565;-77
2023/09/04 08:37:40;;;;;;;4.00;3.37;;;;;;;22.00;96.58;101064.72;5029455;28;20237;-77
2023/09/04 08:40:06;;;;;;;5.07;3.50;;;;;;;22.01;96.73;101066.44;5015522;28;20199;-77
2023/09/04 08:42:32;;;;;;;3.40;3.10;;;;;;;22.04;95.41;101068.06;5015011;28;20201;-76
2023/09/04 08:44:58;;;;;;;3.33;3.03;;;;;;;22.05;95.39;101061.88;5020504;28;20547;-78
2023/09/04 08:47:24;;;;;;;4.40;3.10;;;;;;;22.10;95.69;101070.44;5030686;28;20195;-76
2023/09/04 08:49:51;;;;;;;3.60;3.30;;;;;;;22.11;93.52;101064.25;5024381;28;20786;-77
2023/09/04 08:52:17;;;;;;;4.27;2.87;;;;;;;22.18;94.09;101054.28;5023863;28;20187;-78
2023/09/04 08:54:42;;;;;;;3.27;3.07;;;;;;;22.28;93.31;101052.94;5027044;28;20726;-77
2023/09/04 08:57:08;;;;;;;3.50;3.20;;;;;;;22.32;93.43;101059.78;5023611;28;20176;-76
2023/09/04 08:59:34;;;;;;;3.40;3.13;;;;;;;22.49;93.60;101060.81;5028415;28;20187;-77
2023/09/04 09:02:04;;;;;;;3.60;3.30;;;;;;;22.60;92.59;101060.31;5031910;28;20189;-79
2023/09/04 09:04:30;;;;;;;4.50;3.23;;;;;;;22.64;91.56;101060.09;5020402;28;20226;-78
2023/09/04 09:06:57;;;;;;;4.00;3.60;;;;;;;22.80;89.10;101072.56;5019893;28;20216;-76
2023/09/04 09:09:22;;;;;;;3.80;2.50;;;;;;;22.79;89.90;101053.22;5024531;28;20183;-76
2023/09/04 09:11:53;;;;;;;3.10;2.67;;;;;;;22.91;89.46;101054.41;5025435;28;20583;-78
2023/09/04 09:14:20;;;;;;;3.10;2.90;;;;;;;23.04;89.42;101054.66;5025480;28;20559;-77
2023/09/04 09:16:45;;;;;;;2.77;2.33;;;;;;;23.13;80.64;101043.66;5032953;28;21020;-77
2023/09/04 09:19:13;;;;;;;3.53;2.90;;;;;;;23.31;81.10;101051.59;5023271;28;20223;-77
2023/09/04 09:21:39;;;;;;;4.13;2.90;;;;;;;23.38;87.61;101052.16;5024812;28;20215;-78
2023/09/04 09:24:07;;;;;;;2.93;2.73;;;;;;;23.57;83.89;101060.84;5018814;28;20187;-76
2023/09/04 09:26:33;;;;;;;2.80;2.60;;;;;;;23.74;84.29;101067.91;5024192;28;20329;-76
2023/09/04 09:29:02;;;;;;;2.80;2.60;;;;;;;23.82;85.09;101061.38;5026027;28;20974;-77
2023/09/04 09:31:28;;;;;;;3.10;2.80;;;;;;;24.04;81.90;101064.59;5022044;28;20331;-77
2023/09/04 09:33:55;;;;;;;3.13;2.40;;;;;;;23.93;80.85;101056.38;5025453;28;20194;-77
2023/09/04 09:36:20;;;;;;;2.37;2.27;;;;;;;24.37;81.17;101046.13;5025550;28;20187;-78
2023/09/04 09:38:46;;;;;;;2.23;1.90;;;;;;;24.49;77.32;101041.03;5031575;28;20246;-78
2023/09/04 09:41:15;;;;;;;2.20;2.00;;;;;;;24.28;75.72;101035.09;5033997;28;20204;-79
2023/09/04 09:43:41;;;;;;;2.67;2.40;;;;;;;24.37;76.87;101030.25;5034508;28;20252;-77
2023/09/04 09:46:10;;;;;;;3.20;2.20;;;;;;;24.65;75.25;101029.59;5029000;28;20505;-76
2023/09/04 09:48:40;;;;;;;2.70;2.50;;;;;;;24.64;75.21;101019.94;5022999;28;20203;-78
2023/09/04 09:51:10;;;;;;;2.87;2.67;;;;;;;24.82;75.51;101020.69;5026730;28;20203;-78
2023/09/04 09:53:49;;;;;;;2.47;2.20;;;;;;;24.61;71.84;101031.53;5020318;28;20214;-78
2023/09/04 09:56:17;;;;;;;2.60;2.07;;;;;;;24.79;70.82;101020.88;5021065;28;20190;-76
2023/09/04 09:58:45;;;;;;;2.57;2.37;;;;;;;24.97;70.94;101021.59;5022990;28;20191;-77
2023/09/04 10:01:12;;;;;;;3.13;2.20;;;;;;;24.71;68.87;101033.72;5026696;28;20281;-76
2023/09/04 10:03:38;;;;;;;3.27;2.20;;;;;;;24.72;68.46;101023.03;5024739;28;20253;-77
2023/09/04 10:06:04;;;;;;;3.60;2.10;;;;;;;24.95;70.43;101018.22;5025842;28;20289;-77
2023/09/04 10:08:39;;;;;;;5.07;2.23;;;;;;;25.07;69.86;101027.22;5025513;28;20679;-77
2023/09/04 10:11:07;;;;;;;2.73;2.53;;;;;;;24.81;70.69;101006.59;5025483;28;20203;-78
2023/09/04 10:13:38;;;;;;;2.70;2.50;;;;;;;24.90;71.05;101013.16;5016265;28;20188;-78
2023/09/04 10:16:09;;;;;;;3.70;2.57;;;;;;;25.09;71.68;101014.75;5021788;28;20191;-77
2023/09/04 10:18:37;;;;;;;3.90;2.17;;;;;;;25.20;71.65;101014.94;5015164;28;20688;-77
2023/09/04 10:21:06;;;;;;;6.43;2.47;;;;;;;25.16;68.17;101007.28;5021688;28;20203;-78
2023/09/04 10:23:39;;;;;;;3.07;2.70;;;;;;;25.11;69.38;101005.75;5018131;28;20199;-78
2023/09/04 10:26:08;;;;;;;2.27;2.00;;;;;;;25.19;69.94;100997.34;5022154;28;20202;-78
2023/09/04 10:28:39;;;;;;;3.07;2.10;;;;;;;25.20;69.53;101000.88;5021760;28;20656;-80
2023/09/04 10:31:06;;;;;;;3.13;2.17;;;;;;;25.30;66.77;100980.81;5018036;28;20219;-79
2023/09/04 10:33:32;;;;;;;2.50;2.30;;;;;;;25.15;68.51;100989.69;5014215;28;20198;-77
2023/09/04 10:35:58;;;;;;;2.63;2.43;;;;;;;25.20;69.42;100987.63;5014073;28;20173;-78
2023/09/04 10:38:25;;;;;;;2.40;2.20;;;;;;;25.20;68.48;100988.47;5017461;28;20273;-78
2023/09/04 10:40:51;;;;;;;3.47;2.10;;;;;;;25.39;68.44;100974.13;5014415;28;20200;-79
2023/09/04 10:43:16;;;;;;;2.73;2.47;;;;;;;25.46;67.74;100974.63;5022678;28;20195;-78
2023/09/04 10:45:42;;;;;;;3.07;2.30;;;;;;;25.30;66.95;100977.34;5019223;28;20200;-78
2023/09/04 10:48:07;;;;;;;2.60;2.40;;;;;;;25.41;65.74;100966.94;5017753;28;20175;-79
2023/09/04 10:50:39;;;;;;;2.50;2.30;;;;;;;25.45;66.35;100968.50;5017879;28;20208;-77
2023/09/04 10:53:07;;;;;;;3.07;2.37;;;;;;;25.37;66.08;100963.63;5017494;28;20263;-77
2023/09/04 10:55:36;;;;;;;2.90;2.70;;;;;;;25.38;66.67;100967.97;5016426;28;20223;-77
2023/09/04 10:58:04;;;;;;;2.40;2.20;;;;;;;25.42;67.58;100966.03;5011585;28;20525;-78
2023/09/04 11:00:32;;;;;;;2.50;2.30;;;;;;;25.51;66.38;100962.81;5017124;28;20343;-78
2023/09/04 11:03:12;;;;;;;3.87;2.47;;;;;;;25.46;65.65;100962.25;5018650;28;20245;-77
2023/09/04 11:06:03;;;;;;;2.70;2.50;;;;;;;25.47;66.16;100965.75;5018905;28;20202;-77
2023/09/04 11:08:29;;;;;;;2.50;2.30;;;;;;;25.53;65.02;100963.56;5016985;28;20303;-79
2023/09/04 11:11:05;;;;;;;4.27;2.70;;;;;;;25.56;65.17;100951.94;5025858;28;20218;-77
2023/09/04 11:13:40;;;;;;;3.93;2.70;;;;;;;25.63;64.45;100947.94;5020864;28;20306;-77
2023/09/04 11:16:07;;;;;;;2.60;2.40;;;;;;;25.64;65.03;100941.69;5022492;28;20274;-78